Time;durP1;ratioP1;P1;durP2;ratioP2;P2;SDS_P1;SDS_P2;PMS_P1;PMS_P2;Temp;Humidity;BMP_temperature;BMP_pressure;BME280_temperature;BME280_humidity;BME280_pressure;Samples;Min_cycle;Max_cycle;Signal;HPM_P1;HPM_P2
2023/09/29 00:00:20;;;;;;;3.00;2.05;;;22.80;56.60;;;;;;4999898;28;20084;-60
2023/09/29 00:02:47;;;;;;;2.58;1.83;;;22.70;56.60;;;;;;5001342;28;20030;-61
2023/09/29 00:05:17;;;;;;;2.92;1.92;;;22.70;57.10;;;;;;4999011;28;21060;-62
2023/09/29 00:07:43;;;;;;;2.67;1.90;;;22.70;56.50;;;;;;5001598;28;20589;-61
2023/09/29 00:10:10;;;;;;;2.80;2.05;;;22.70;56.50;;;;;;5000650;28;20085;-61
2023/09/29 00:12:41;;;;;;;3.50;2.20;;;22.70;56.50;;;;;;4997158;28;20057;-61
2023/09/29 00:15:07;;;;;;;3.25;2.00;;;22.70;56.50;;;;;;4999948;28;20473;-60
2023/09/29 00:17:33;;;;;;;2.78;1.90;;;22.70;56.50;;;;;;5000517;28;20171;-60
2023/09/29 00:20:00;;;;;;;3.58;2.20;;;22.70;56.50;;;;;;4998852;28;20113;-60
2023/09/29 00:22:26;;;;;;;2.67;1.80;;;22.70;57.00;;;;;;4998309;28;20034;-65
2023/09/29 00:24:52;;;;;;;3.45;2.20;;;22.70;56.50;;;;;;4999675;28;20543;-64
2023/09/29 00:27:17;;;;;;;3.38;1.83;;;22.70;56.50;;;;;;4997542;28;20034;-65
2023/09/29 00:29:43;;;;;;;2.63;1.83;;;22.70;56.50;;;;;;4999684;28;20522;-65
2023/09/29 00:32:09;;;;;;;2.88;2.00;;;22.70;56.50;;;;;;4997968;28;20078;-63
2023/09/29 00:34:36;;;;;;;3.47;1.98;;;22.70;56.50;;;;;;5000982;28;20045;-63
2023/09/29 00:37:02;;;;;;;3.17;1.90;;;22.70;56.50;;;;;;4999891;28;20125;-63
2023/09/29 00:39:28;;;;;;;2.70;1.70;;;22.70;57.00;;;;;;4999010;28;20034;-62
2023/09/29 00:41:53;;;;;;;2.90;1.90;;;22.70;56.40;;;;;;4999185;28;20026;-62
2023/09/29 00:44:19;;;;;;;2.50;1.60;;;22.70;56.50;;;;;;4998258;28;20568;-62
2023/09/29 00:46:45;;;;;;;2.80;1.80;;;22.70;56.40;;;;;;5000023;28;20030;-63
2023/09/29 00:49:13;;;;;;;3.78;2.10;;;22.70;56.40;;;;;;4999690;28;20081;-63
2023/09/29 00:51:39;;;;;;;3.42;2.00;;;22.70;56.40;;;;;;4999071;28;20536;-63
2023/09/29 00:54:08;;;;;;;2.47;1.80;;;22.70;56.40;;;;;;5000103;28;20129;-63
2023/09/29 00:56:39;;;;;;;2.70;1.87;;;22.70;56.40;;;;;;4998266;28;20538;-62
2023/09/29 00:59:06;;;;;;;3.08;1.80;;;22.70;56.40;;;;;;4998894;28;20030;-63
2023/09/29 01:01:35;;;;;;;3.35;1.92;;;22.70;56.40;;;;;;4998329;28;20049;-62
2023/09/29 01:04:02;;;;;;;3.25;1.90;;;22.70;56.40;;;;;;4997226;28;20533;-60
2023/09/29 01:06:31;;;;;;;2.95;1.77;;;22.70;56.40;;;;;;4997967;28;20037;-60
2023/09/29 01:08:58;;;;;;;2.92;1.90;;;22.70;56.40;;;;;;5000721;28;20088;-61
2023/09/29 01:11:24;;;;;;;3.08;1.80;;;22.70;56.40;;;;;;4998077;28;20446;-60
2023/09/29 01:13:51;;;;;;;2.88;1.63;;;22.70;56.40;;;;;;4997328;28;20030;-62
2023/09/29 01:16:17;;;;;;;2.53;1.77;;;22.70;56.40;;;;;;4999035;28;20474;-60
2023/09/29 01:18:43;;;;;;;3.25;1.98;;;22.70;56.40;;;;;;5000409;28;20129;-61
2023/09/29 01:21:09;;;;;;;3.17;1.95;;;22.70;56.40;;;;;;4998119;28;20441;-62
2023/09/29 01:23:34;;;;;;;2.55;1.80;;;22.60;56.30;;;;;;4998641;28;20038;-60
2023/09/29 01:26:02;;;;;;;2.70;1.70;;;22.60;56.30;;;;;;4997078;28;20026;-61
2023/09/29 01:28:29;;;;;;;3.25;1.83;;;22.70;56.40;;;;;;4996176;28;20114;-60
2023/09/29 01:30:55;;;;;;;2.78;1.58;;;22.70;56.30;;;;;;4999536;28;20045;-60
2023/09/29 01:33:23;;;;;;;2.72;1.80;;;22.60;56.30;;;;;;4998436;28;20022;-62
2023/09/29 01:35:50;;;;;;;2.30;1.40;;;22.60;56.30;;;;;;4999755;28;20108;-60
2023/09/29 01:38:15;;;;;;;2.30;1.60;;;22.60;56.30;;;;;;4996684;28;20042;-62
2023/09/29 01:40:44;;;;;;;2.25;1.60;;;22.60;56.30;;;;;;4997554;28;20561;-61
2023/09/29 01:43:10;;;;;;;2.33;1.50;;;22.60;56.30;;;;;;4996304;28;20441;-62
2023/09/29 01:45:38;;;;;;;2.67;1.65;;;22.60;56.30;;;;;;4996363;28;20022;-62
2023/09/29 01:48:04;;;;;;;2.35;1.50;;;22.60;56.30;;;;;;4998304;28;20449;-64
2023/09/29 01:50:33;;;;;;;2.97;1.80;;;22.60;56.30;;;;;;4997365;28;20109;-62
2023/09/29 01:52:58;;;;;;;2.10;1.52;;;22.60;56.30;;;;;;4997784;28;20031;-62
2023/09/29 01:55:24;;;;;;;2.63;1.70;;;22.60;56.30;;;;;;4998092;28;20418;-63
2023/09/29 01:57:55;;;;;;;2.42;1.67;;;22.60;56.30;;;;;;4996206;28;20153;-62
2023/09/29 02:00:28;;;;;;;2.70;1.73;;;22.60;56.20;;;;;;4998933;28;20035;-62
2023/09/29 02:02:55;;;;;;;2.97;1.65;;;22.60;56.20;;;;;;5001040;28;20124;-62
2023/09/29 02:05:21;;;;;;;2.40;1.52;;;22.60;56.20;;;;;;5002434;28;20026;-62
2023/09/29 02:07:49;;;;;;;2.20;1.45;;;22.60;56.20;;;;;;5001010;28;20029;-63
2023/09/29 02:10:20;;;;;;;2.70;1.70;;;22.60;56.20;;;;;;5000018;28;20031;-62
2023/09/29 02:12:56;;;;;;;2.60;1.58;;;22.60;56.20;;;;;;4998985;28;20027;-60
2023/09/29 02:15:22;;;;;;;2.40;1.70;;;22.60;56.20;;;;;;5002736;28;20102;-60
2023/09/29 02:17:50;;;;;;;2.70;1.73;;;22.60;56.20;;;;;;5002196;28;20373;-61
2023/09/29 02:20:18;;;;;;;2.73;1.73;;;22.60;56.20;;;;;;5000328;28;20109;-61
2023/09/29 02:22:44;;;;;;;2.08;1.48;;;22.60;56.20;;;;;;5002202;28;20389;-61
2023/09/29 02:25:11;;;;;;;2.78;1.58;;;22.60;56.20;;;;;;5002503;28;20028;-61
2023/09/29 02:27:37;;;;;;;2.33;1.60;;;22.60;56.20;;;;;;5001553;28;20105;-61
2023/09/29 02:30:04;;;;;;;2.83;1.70;;;22.60;56.20;;;;;;5003501;28;20109;-60
2023/09/29 02:32:29;;;;;;;1.98;1.33;;;22.60;56.20;;;;;;5002168;28;20034;-61
2023/09/29 02:34:55;;;;;;;2.47;1.60;;;22.60;56.20;;;;;;5000500;28;20037;-60
2023/09/29 02:37:21;;;;;;;2.38;1.48;;;22.60;56.20;;;;;;4999794;28;20428;-61
2023/09/29 02:39:47;;;;;;;2.13;1.55;;;22.60;56.20;;;;;;5000738;28;20529;-61
2023/09/29 02:42:13;;;;;;;2.30;1.52;;;22.60;56.20;;;;;;5000048;28;20066;-60
2023/09/29 02:44:39;;;;;;;2.03;1.50;;;22.60;56.20;;;;;;4999008;28;20347;-64
2023/09/29 02:47:05;;;;;;;2.55;1.60;;;22.60;56.20;;;;;;5000020;28;20111;-65
2023/09/29 02:49:33;;;;;;;2.10;1.40;;;22.60;56.20;;;;;;5003129;28;20057;-65
2023/09/29 02:52:04;;;;;;;2.42;1.70;;;22.60;56.20;;;;;;5001682;28;20986;-65
2023/09/29 02:54:30;;;;;;;2.60;1.40;;;22.60;56.20;;;;;;5001769;28;20486;-63
2023/09/29 02:56:56;;;;;;;2.03;1.35;;;22.50;56.60;;;;;;5001001;28;20059;-62
2023/09/29 02:59:24;;;;;;;2.40;1.52;;;22.50;56.10;;;;;;5000527;28;20331;-63
2023/09/29 03:01:52;;;;;;;2.55;1.50;;;22.50;56.10;;;;;;5000491;28;20049;-62
2023/09/29 03:04:19;;;;;;;2.20;1.40;;;22.50;56.10;;;;;;5002177;28;20105;-62
2023/09/29 03:06:45;;;;;;;2.25;1.50;;;22.50;56.10;;;;;;4999928;28;20050;-62
2023/09/29 03:09:13;;;;;;;2.15;1.40;;;22.50;56.10;;;;;;5000225;28;20026;-62
2023/09/29 03:11:40;;;;;;;2.53;1.50;;;22.50;56.10;;;;;;5001338;28;20018;-62
2023/09/29 03:14:06;;;;;;;2.00;1.23;;;22.50;56.10;;;;;;4998508;28;20034;-62
2023/09/29 03:16:34;;;;;;;3.20;1.48;;;22.50;56.10;;;;;;5000891;28;20031;-62
2023/09/29 03:19:00;;;;;;;2.10;1.42;;;22.50;56.10;;;;;;4999576;28;20130;-62
2023/09/29 03:21:25;;;;;;;2.25;1.50;;;22.50;56.10;;;;;;5000939;28;20105;-62
2023/09/29 03:23:51;;;;;;;2.28;1.55;;;22.50;56.10;;;;;;5001108;28;20076;-65
2023/09/29 03:26:17;;;;;;;2.60;1.50;;;22.50;56.10;;;;;;4998309;28;20034;-64
2023/09/29 03:28:43;;;;;;;2.63;1.50;;;22.50;56.10;;;;;;4998866;28;20034;-65
2023/09/29 03:31:09;;;;;;;2.00;1.30;;;22.50;56.10;;;;;;5000120;28;20037;-65
2023/09/29 03:33:35;;;;;;;2.33;1.55;;;22.50;56.10;;;;;;5000172;28;20026;-65
2023/09/29 03:36:01;;;;;;;2.75;1.55;;;22.50;56.10;;;;;;4998877;28;20034;-65
2023/09/29 03:38:27;;;;;;;2.15;1.40;;;22.50;56.10;;;;;;5000176;28;20034;-66
2023/09/29 03:40:53;;;;;;;2.47;1.63;;;22.50;56.10;;;;;;5001632;28;20041;-66
2023/09/29 03:43:23;;;;;;;2.20;1.52;;;22.50;56.60;;;;;;4999046;28;20046;-66
2023/09/29 03:45:49;;;;;;;2.10;1.50;;;22.50;56.10;;;;;;4998254;28;20028;-66
2023/09/29 03:48:16;;;;;;;1.92;1.33;;;22.50;56.10;;;;;;4999102;28;20025;-65
2023/09/29 03:50:42;;;;;;;2.28;1.42;;;22.50;56.10;;;;;;4998530;28;20533;-65
2023/09/29 03:53:08;;;;;;;2.08;1.40;;;22.50;56.10;;;;;;4998023;28;20389;-60
2023/09/29 03:55:35;;;;;;;2.30;1.45;;;22.50;56.10;;;;;;4999996;28;20030;-61
2023/09/29 03:58:01;;;;;;;2.13;1.30;;;22.40;56.10;;;;;;4999313;28;20093;-61
2023/09/29 04:00:27;;;;;;;2.47;1.40;;;22.50;56.10;;;;;;4997381;28;20073;-61
2023/09/29 04:02:53;;;;;;;2.33;1.50;;;22.40;56.10;;;;;;4998297;28;20059;-60
2023/09/29 04:05:20;;;;;;;2.15;1.38;;;22.40;56.10;;;;;;4998802;28;20026;-62
2023/09/29 04:07:45;;;;;;;2.03;1.30;;;22.40;56.10;;;;;;4999082;28;20124;-62
2023/09/29 04:10:13;;;;;;;2.10;1.40;;;22.40;56.60;;;;;;4999638;28;20125;-61
2023/09/29 04:12:41;;;;;;;2.40;1.50;;;22.40;56.10;;;;;;4999320;28;20041;-61
2023/09/29 04:15:07;;;;;;;2.45;1.40;;;22.40;56.10;;;;;;4998675;28;20057;-61
2023/09/29 04:17:35;;;;;;;2.10;1.35;;;22.40;56.20;;;;;;4998835;28;20463;-61
2023/09/29 04:20:02;;;;;;;2.10;1.40;;;22.40;56.20;;;;;;4999009;28;20457;-63
2023/09/29 04:22:28;;;;;;;2.92;1.55;;;22.40;56.20;;;;;;5000129;28;20081;-60
2023/09/29 04:24:53;;;;;;;2.95;1.50;;;22.40;56.20;;;;;;4997596;28;20443;-61
2023/09/29 04:27:19;;;;;;;2.30;1.42;;;22.40;56.20;;;;;;4996740;28;20030;-61
2023/09/29 04:29:44;;;;;;;2.08;1.48;;;22.30;56.20;;;;;;4997260;28;20477;-61
2023/09/29 04:32:10;;;;;;;2.33;1.30;;;22.40;56.30;;;;;;4999508;28;20029;-61
2023/09/29 04:34:36;;;;;;;1.70;1.17;;;22.40;56.40;;;;;;4998596;28;20085;-63
2023/09/29 04:37:01;;;;;;;2.28;1.60;;;22.40;56.40;;;;;;4998551;28;20165;-63
2023/09/29 04:39:27;;;;;;;2.03;1.40;;;22.40;56.40;;;;;;4996591;28;20049;-63
2023/09/29 04:41:52;;;;;;;2.08;1.40;;;22.40;56.40;;;;;;4999177;28;20113;-62
2023/09/29 04:44:18;;;;;;;2.15;1.48;;;22.40;56.40;;;;;;4997248;28;20026;-63
2023/09/29 04:46:44;;;;;;;2.15;1.40;;;22.40;56.40;;;;;;5000049;28;20060;-62
2023/09/29 04:49:10;;;;;;;3.03;1.50;;;22.40;56.40;;;;;;4996596;28;20029;-62
2023/09/29 04:51:36;;;;;;;2.35;1.42;;;22.40;56.40;;;;;;4998834;28;20042;-62
2023/09/29 04:54:02;;;;;;;2.00;1.42;;;22.40;56.40;;;;;;4997245;28;20658;-62
2023/09/29 04:56:28;;;;;;;1.98;1.30;;;22.40;56.50;;;;;;4998512;28;20026;-62
2023/09/29 04:58:54;;;;;;;2.25;1.33;;;22.30;56.40;;;;;;4997202;28;20026;-62
2023/09/29 05:01:20;;;;;;;2.90;1.60;;;22.30;56.40;;;;;;4999196;28;20113;-63
2023/09/29 05:03:47;;;;;;;2.55;1.48;;;22.30;56.40;;;;;;4998161;28;20550;-65
2023/09/29 05:06:13;;;;;;;2.28;1.33;;;22.30;56.50;;;;;;4998476;28;20451;-65
2023/09/29 05:08:39;;;;;;;2.20;1.30;;;22.30;56.50;;;;;;5000977;28;20029;-65
2023/09/29 05:11:05;;;;;;;2.05;1.20;;;22.30;56.40;;;;;;4996046;28;20018;-66
2023/09/29 05:13:32;;;;;;;2.17;1.38;;;22.30;56.50;;;;;;4997917;28;20082;-63
2023/09/29 05:16:00;;;;;;;2.20;1.38;;;22.30;56.50;;;;;;4995652;28;20061;-63
2023/09/29 05:18:26;;;;;;;2.47;1.40;;;22.30;56.50;;;;;;4997715;28;20041;-63
2023/09/29 05:20:52;;;;;;;2.50;1.40;;;22.30;56.50;;;;;;4998831;28;20102;-62
2023/09/29 05:23:18;;;;;;;2.63;1.50;;;22.30;56.50;;;;;;4997751;28;20041;-63
2023/09/29 05:25:45;;;;;;;2.10;1.38;;;22.30;56.70;;;;;;4997767;28;20470;-63
2023/09/29 05:28:11;;;;;;;2.38;1.42;;;22.30;56.60;;;;;;4996531;28;20030;-63
2023/09/29 05:30:36;;;;;;;2.38;1.50;;;22.30;56.60;;;;;;4997151;28;20027;-62
2023/09/29 05:33:02;;;;;;;2.13;1.30;;;22.30;56.60;;;;;;4998549;28;20030;-64
2023/09/29 05:35:28;;;;;;;2.10;1.38;;;22.30;56.60;;;;;;4999045;28;20125;-64
2023/09/29 05:37:54;;;;;;;1.60;1.10;;;22.30;56.60;;;;;;5002898;28;20521;-63
2023/09/29 05:40:19;;;;;;;1.92;1.25;;;22.30;56.60;;;;;;5000527;28;20038;-63
2023/09/29 05:42:45;;;;;;;2.17;1.23;;;22.30;56.60;;;;;;5002728;28;20077;-63
2023/09/29 05:45:14;;;;;;;2.10;1.40;;;22.30;56.60;;;;;;5001780;28;20069;-60
2023/09/29 05:47:40;;;;;;;2.13;1.38;;;22.30;56.60;;;;;;5002642;28;20023;-60
2023/09/29 05:50:06;;;;;;;1.65;1.10;;;22.30;56.60;;;;;;5001526;28;20030;-60
2023/09/29 05:52:32;;;;;;;1.83;1.23;;;22.20;56.50;;;;;;5001601;28;20034;-60
2023/09/29 05:54:57;;;;;;;2.28;1.40;;;22.20;56.60;;;;;;5002143;28;20102;-62
2023/09/29 05:57:23;;;;;;;1.92;1.20;;;22.20;56.60;;;;;;5002327;28;20037;-61
2023/09/29 05:59:49;;;;;;;2.38;1.40;;;22.20;56.60;;;;;;5001781;28;20030;-61
2023/09/29 06:02:14;;;;;;;2.17;1.27;;;22.20;56.60;;;;;;4999372;28;20033;-60
2023/09/29 06:04:40;;;;;;;2.63;1.50;;;22.30;56.60;;;;;;5002262;28;20506;-61
2023/09/29 06:07:05;;;;;;;1.77;1.20;;;22.20;56.60;;;;;;5016965;28;20159;-61
2023/09/29 06:09:31;;;;;;;2.45;1.10;;;22.20;56.60;;;;;;5000617;28;20026;-60
2023/09/29 06:11:57;;;;;;;2.85;1.48;;;22.20;56.60;;;;;;5001243;28;20035;-61
2023/09/29 06:14:22;;;;;;;3.25;1.30;;;22.20;56.60;;;;;;4999170;28;20023;-63
2023/09/29 06:16:48;;;;;;;2.30;1.30;;;22.20;56.60;;;;;;4999544;28;20091;-63
2023/09/29 06:19:15;;;;;;;2.05;1.20;;;22.20;56.60;;;;;;5001481;28;20030;-62
2023/09/29 06:21:40;;;;;;;1.50;1.10;;;22.20;56.50;;;;;;5001123;28;20561;-63
2023/09/29 06:24:06;;;;;;;2.50;1.30;;;22.20;56.60;;;;;;5000831;28;20061;-63
2023/09/29 06:26:32;;;;;;;1.92;1.23;;;22.20;56.50;;;;;;5002216;28;20026;-63
2023/09/29 06:28:57;;;;;;;2.33;1.30;;;22.20;56.50;;;;;;5003524;28;20025;-62
2023/09/29 06:31:23;;;;;;;2.65;1.42;;;22.20;56.50;;;;;;4999726;28;20018;-63
2023/09/29 06:33:48;;;;;;;2.25;1.48;;;22.20;56.50;;;;;;5000057;28;20057;-63
2023/09/29 06:36:14;;;;;;;2.75;1.42;;;22.20;56.50;;;;;;5002834;28;20026;-63
2023/09/29 06:38:40;;;;;;;2.25;1.30;;;22.20;56.50;;;;;;4999780;28;20023;-62
2023/09/29 06:41:06;;;;;;;2.05;1.30;;;22.20;56.50;;;;;;5000250;28;20034;-63
2023/09/29 06:43:32;;;;;;;2.20;1.35;;;22.20;56.50;;;;;;5002102;28;20036;-63
2023/09/29 06:45:58;;;;;;;1.95;1.20;;;22.20;56.50;;;;;;4998872;28;20022;-62
2023/09/29 06:48:24;;;;;;;2.50;1.40;;;22.20;56.50;;;;;;5000763;28;20022;-64
2023/09/29 06:50:49;;;;;;;2.45;1.40;;;22.20;56.70;;;;;;5001692;28;20117;-62
2023/09/29 06:53:15;;;;;;;2.45;1.45;;;22.20;56.50;;;;;;5001254;28;20246;-63
2023/09/29 06:55:40;;;;;;;2.15;1.38;;;22.20;56.50;;;;;;5000310;28;20040;-63
2023/09/29 06:58:07;;;;;;;2.17;1.30;;;22.20;56.50;;;;;;5000088;28;20038;-63
2023/09/29 07:00:33;;;;;;;2.35;1.30;;;22.20;56.50;;;;;;4999541;28;20060;-63
2023/09/29 07:02:58;;;;;;;1.65;1.20;;;22.20;56.50;;;;;;4998465;28;20483;-64
2023/09/29 07:05:24;;;;;;;1.88;1.20;;;22.20;56.50;;;;;;5000729;28;20077;-63
2023/09/29 07:07:49;;;;;;;2.47;1.40;;;22.20;56.50;;;;;;4999430;28;20034;-63
2023/09/29 07:10:15;;;;;;;2.55;1.40;;;22.20;56.50;;;;;;5000680;28;20109;-63
2023/09/29 07:12:41;;;;;;;2.10;1.27;;;22.20;56.40;;;;;;4998823;28;20423;-63
2023/09/29 07:15:08;;;;;;;2.50;1.30;;;22.20;56.50;;;;;;5000530;28;20038;-63
2023/09/29 07:17:34;;;;;;;1.63;1.20;;;22.20;56.50;;;;;;5000422;28;20094;-63
2023/09/29 07:19:59;;;;;;;1.90;1.30;;;22.20;56.40;;;;;;4999537;28;20030;-63
2023/09/29 07:22:25;;;;;;;2.00;1.17;;;22.20;56.50;;;;;;4998667;28;20257;-63
2023/09/29 07:24:52;;;;;;;1.50;1.10;;;22.20;56.50;;;;;;5001243;28;20062;-65
2023/09/29 07:27:18;;;;;;;2.38;1.38;;;22.20;56.40;;;;;;4999754;28;20018;-64
2023/09/29 07:29:43;;;;;;;2.22;1.30;;;22.20;56.40;;;;;;5000458;28;20037;-65
2023/09/29 07:32:11;;;;;;;1.77;1.20;;;22.20;56.40;;;;;;4996561;28;20049;-65
2023/09/29 07:34:37;;;;;;;2.22;1.17;;;22.20;56.40;;;;;;5002155;28;20084;-63
2023/09/29 07:37:02;;;;;;;1.85;1.10;;;22.20;56.40;;;;;;4998398;28;20545;-63
2023/09/29 07:39:28;;;;;;;1.70;1.00;;;22.20;56.40;;;;;;5000610;28;20034;-63
2023/09/29 07:41:54;;;;;;;2.08;1.30;;;22.20;56.40;;;;;;4997160;28;20056;-63
2023/09/29 07:44:19;;;;;;;2.28;1.40;;;22.20;56.40;;;;;;4999010;28;20026;-63
2023/09/29 07:46:48;;;;;;;1.98;1.20;;;22.20;56.40;;;;;;4999750;28;20558;-64
2023/09/29 07:49:16;;;;;;;2.00;1.20;;;22.20;56.40;;;;;;5000892;28;20506;-63
2023/09/29 07:51:42;;;;;;;2.15;1.40;;;22.20;56.40;;;;;;4999506;28;20482;-63
2023/09/29 07:54:09;;;;;;;1.88;1.25;;;22.20;56.50;;;;;;4998862;28;20124;-63
2023/09/29 07:56:35;;;;;;;3.10;1.25;;;22.20;56.50;;;;;;4999307;28;20129;-63
2023/09/29 07:59:01;;;;;;;1.70;1.20;;;22.20;56.50;;;;;;4998722;28;20402;-63
2023/09/29 08:01:26;;;;;;;1.80;1.20;;;22.20;56.50;;;;;;4998005;28;20462;-63
2023/09/29 08:03:52;;;;;;;2.35;1.40;;;22.20;56.60;;;;;;4998710;28;20038;-62
2023/09/29 08:06:18;;;;;;;2.15;1.30;;;22.20;56.60;;;;;;4999864;28;20053;-62
2023/09/29 08:08:43;;;;;;;2.05;1.30;;;22.20;56.60;;;;;;4999176;28;20160;-62
2023/09/29 08:11:09;;;;;;;2.22;1.42;;;22.20;56.70;;;;;;4999357;28;20026;-62
2023/09/29 08:13:34;;;;;;;1.90;1.20;;;22.20;56.60;;;;;;5000410;28;20034;-62
2023/09/29 08:16:00;;;;;;;2.30;1.20;;;22.20;56.60;;;;;;4998429;28;20049;-62
2023/09/29 08:18:26;;;;;;;1.90;1.30;;;22.20;56.70;;;;;;4998628;28;20565;-62
2023/09/29 08:20:53;;;;;;;2.05;1.30;;;22.20;56.70;;;;;;4998503;28;20037;-62
2023/09/29 08:23:19;;;;;;;2.47;1.30;;;22.20;56.70;;;;;;4997923;28;20041;-62
2023/09/29 08:25:46;;;;;;;1.75;1.10;;;22.20;56.70;;;;;;4999050;28;20442;-62
2023/09/29 08:28:13;;;;;;;2.00;1.30;;;22.20;56.70;;;;;;4998545;28;20045;-62
2023/09/29 08:30:39;;;;;;;1.40;1.05;;;22.20;56.70;;;;;;4999143;28;20528;-62
2023/09/29 08:33:05;;;;;;;2.47;1.30;;;22.20;56.70;;;;;;5000461;28;20390;-62
2023/09/29 08:35:31;;;;;;;2.25;1.40;;;22.20;56.70;;;;;;4998879;28;20040;-62
2023/09/29 08:37:57;;;;;;;1.80;1.40;;;22.20;56.70;;;;;;4997066;28;20065;-62
2023/09/29 08:40:22;;;;;;;1.80;1.10;;;22.20;56.70;;;;;;4999356;28;20026;-62
2023/09/29 08:42:52;;;;;;;1.63;1.10;;;22.20;56.70;;;;;;4998890;28;20379;-62
2023/09/29 08:45:18;;;;;;;2.05;1.25;;;22.20;56.70;;;;;;5001417;28;20076;-63
2023/09/29 08:47:51;;;;;;;1.45;1.10;;;22.20;56.70;;;;;;4997510;28;20572;-64
2023/09/29 08:50:17;;;;;;;1.90;1.20;;;22.20;56.70;;;;;;4998564;28;20026;-63
2023/09/29 08:52:44;;;;;;;1.73;1.23;;;22.20;56.70;;;;;;4999248;28;20045;-63
2023/09/29 08:55:13;;;;;;;2.08;1.20;;;22.20;56.70;;;;;;4997187;28;20033;-64
2023/09/29 08:57:43;;;;;;;2.15;1.30;;;22.20;56.70;;;;;;4998199;28;20398;-63
2023/09/29 09:00:13;;;;;;;1.85;1.20;;;22.20;56.70;;;;;;4997440;28;20505;-64
2023/09/29 09:02:46;;;;;;;2.53;1.50;;;22.20;56.70;;;;;;4997819;28;20482;-63
2023/09/29 09:05:13;;;;;;;1.70;1.15;;;22.20;56.80;;;;;;4997044;28;20109;-63
2023/09/29 09:07:39;;;;;;;2.15;1.20;;;22.20;56.70;;;;;;5000085;28;20026;-63
2023/09/29 09:10:06;;;;;;;1.90;1.17;;;22.20;56.70;;;;;;4998938;28;20834;-62
2023/09/29 09:12:36;;;;;;;1.80;1.20;;;22.20;56.70;;;;;;5005253;28;20113;-63
2023/09/29 09:15:04;;;;;;;2.03;1.20;;;22.20;56.70;;;;;;5002962;28;20034;-63
2023/09/29 09:17:34;;;;;;;1.77;1.20;;;22.20;56.70;;;;;;5000853;28;20040;-63
2023/09/29 09:20:00;;;;;;;1.85;1.20;;;22.20;56.70;;;;;;5003988;28;20038;-63
2023/09/29 09:22:31;;;;;;;2.00;1.20;;;22.20;56.70;;;;;;5003591;28;20034;-62
2023/09/29 09:25:01;;;;;;;1.73;1.10;;;22.20;57.20;;;;;;5002874;28;20029;-63
2023/09/29 09:27:39;;;;;;;1.77;1.13;;;22.20;56.70;;;;;;5002029;28;20030;-63
2023/09/29 09:30:06;;;;;;;2.00;1.33;;;22.20;56.70;;;;;;5002490;28;20061;-63
2023/09/29 09:32:31;;;;;;;2.10;1.30;;;22.20;56.70;;;;;;4999363;28;20046;-64
2023/09/29 09:35:00;;;;;;;1.45;1.02;;;22.20;56.70;;;;;;5003335;28;20021;-62
2023/09/29 09:37:29;;;;;;;1.92;1.20;;;22.20;56.80;;;;;;5002908;28;20382;-64
2023/09/29 09:39:55;;;;;;;2.17;1.20;;;22.20;56.70;;;;;;5001779;28;20134;-63
2023/09/29 09:42:25;;;;;;;1.85;1.20;;;22.20;56.70;;;;;;4999745;28;20123;-63
2023/09/29 09:44:58;;;;;;;1.65;1.05;;;22.20;56.70;;;;;;5000456;28;20018;-65
2023/09/29 09:47:25;;;;;;;1.92;1.33;;;22.20;56.70;;;;;;5001439;28;20101;-65
2023/09/29 09:49:56;;;;;;;1.90;1.10;;;22.20;56.70;;;;;;5001081;28;20516;-65
2023/09/29 09:52:30;;;;;;;2.08;1.40;;;22.20;56.70;;;;;;5001432;28;20046;-65
2023/09/29 09:54:58;;;;;;;2.03;1.30;;;22.20;56.70;;;;;;5001991;28;20041;-62
2023/09/29 09:57:34;;;;;;;2.00;1.40;;;22.20;56.70;;;;;;5000556;28;20046;-61
2023/09/29 10:00:10;;;;;;;2.13;1.27;;;22.20;56.70;;;;;;5000502;28;20030;-61
2023/09/29 10:02:51;;;;;;;1.95;1.40;;;22.20;56.70;;;;;;5001182;28;20141;-61
2023/09/29 10:05:30;;;;;;;2.25;1.45;;;22.20;57.20;;;;;;4999420;28;20045;-61
2023/09/29 10:08:05;;;;;;;3.00;1.70;;;22.20;56.70;;;;;;4999234;28;20030;-61
2023/09/29 10:10:34;;;;;;;2.38;1.58;;;22.20;56.60;;;;;;5000205;28;20030;-62
2023/09/29 10:13:01;;;;;;;2.38;1.52;;;22.20;56.60;;;;;;5002253;28;20031;-61
2023/09/29 10:15:30;;;;;;;1.98;1.33;;;22.20;56.60;;;;;;5002337;28;20034;-61
2023/09/29 10:18:17;;;;;;;2.63;1.60;;;22.20;56.60;;;;;;5001280;28;20243;-62
2023/09/29 10:20:43;;;;;;;1.98;1.48;;;22.20;56.60;;;;;;5001697;28;20125;-60
2023/09/29 10:23:15;;;;;;;2.70;1.60;;;22.20;57.10;;;;;;5001246;28;20433;-61
2023/09/29 10:25:44;;;;;;;2.70;1.70;;;22.20;56.60;;;;;;4999438;28;20117;-61
2023/09/29 10:28:12;;;;;;;3.20;1.63;;;22.30;56.60;;;;;;5001209;28;20128;-61
2023/09/29 10:30:39;;;;;;;3.28;1.95;;;22.30;56.60;;;;;;4999793;28;20027;-61
2023/09/29 10:33:06;;;;;;;3.38;1.88;;;22.30;56.60;;;;;;5000237;28;20088;-61
2023/09/29 10:35:36;;;;;;;3.00;1.80;;;22.30;56.60;;;;;;5001791;28;20124;-61
2023/09/29 10:38:12;;;;;;;4.07;1.80;;;22.30;56.50;;;;;;5000914;28;20616;-62
2023/09/29 10:40:38;;;;;;;3.35;1.73;;;22.30;56.50;;;;;;5000407;28;20026;-61
2023/09/29 10:43:05;;;;;;;3.78;2.30;;;22.30;56.60;;;;;;4999726;28;20034;-61
2023/09/29 10:45:36;;;;;;;3.42;2.03;;;22.30;56.60;;;;;;5000295;28;20037;-62
2023/09/29 10:48:06;;;;;;;2.90;1.83;;;22.30;56.60;;;;;;5000585;28;20035;-60
2023/09/29 10:50:49;;;;;;;2.80;1.70;;;22.30;56.60;;;;;;5000316;28;20034;-61
2023/09/29 10:53:16;;;;;;;3.17;1.90;;;22.30;56.60;;;;;;5000091;28;20101;-61
2023/09/29 10:55:47;;;;;;;3.15;1.95;;;22.30;57.10;;;;;;5001591;28;20069;-62
2023/09/29 10:58:14;;;;;;;3.10;2.05;;;22.30;56.50;;;;;;4999872;28;20034;-62
2023/09/29 11:00:43;;;;;;;2.90;1.92;;;22.30;56.40;;;;;;5000072;28;20104;-62
2023/09/29 11:03:12;;;;;;;;;;;22.30;56.50;;;;;;4999948;28;20477;-63
2023/09/29 11:05:50;;;;;;;3.60;1.90;;;22.30;56.40;;;;;;4999458;28;19909;-62
2023/09/29 11:08:20;;;;;;;3.25;2.00;;;22.30;56.40;;;;;;5000737;28;20387;-63
2023/09/29 11:11:14;;;;;;;3.45;2.20;;;22.30;56.40;;;;;;5001136;28;20027;-63
2023/09/29 11:13:40;;;;;;;3.75;2.15;;;22.30;56.50;;;;;;4996641;28;20478;-62
2023/09/29 11:16:27;;;;;;;3.45;1.92;;;22.30;56.50;;;;;;5000615;28;20022;-62
2023/09/29 11:18:56;;;;;;;4.07;2.15;;;22.30;56.50;;;;;;4999955;28;20061;-62
2023/09/29 11:21:33;;;;;;;3.00;2.00;;;22.30;56.50;;;;;;4999552;28;20168;-62
2023/09/29 11:24:10;;;;;;;3.63;2.38;;;22.30;56.50;;;;;;5002254;28;20588;-62
2023/09/29 11:26:43;;;;;;;3.03;1.90;;;22.30;56.50;;;;;;5000089;28;20018;-61
2023/09/29 11:29:23;;;;;;;3.45;2.45;;;22.40;56.60;;;;;;5000785;28;20482;-61
2023/09/29 11:31:53;;;;;;;3.80;2.38;;;22.40;56.60;;;;;;5001467;28;20042;-62
2023/09/29 11:34:19;;;;;;;3.47;2.20;;;22.40;56.70;;;;;;4999769;28;20048;-64
2023/09/29 11:36:44;;;;;;;3.75;2.20;;;22.40;57.10;;;;;;5001676;28;20030;-66
2023/09/29 11:39:16;;;;;;;3.67;2.10;;;22.40;56.60;;;;;;5000339;28;20092;-65
2023/09/29 11:41:42;;;;;;;3.88;2.38;;;22.40;56.60;;;;;;4997614;28;20530;-65
2023/09/29 11:44:08;;;;;;;3.45;1.95;;;22.40;56.60;;;;;;4997774;28;20037;-65
2023/09/29 11:46:35;;;;;;;3.67;2.10;;;22.40;56.60;;;;;;5001379;28;20109;-66
2023/09/29 11:49:01;;;;;;;3.65;2.05;;;22.40;56.60;;;;;;4998609;28;20429;-65
2023/09/29 11:51:27;;;;;;;3.30;2.00;;;22.40;56.50;;;;;;4997639;28;20173;-65
2023/09/29 11:53:52;;;;;;;3.17;2.10;;;22.40;56.50;;;;;;5000798;28;20109;-65
2023/09/29 11:56:18;;;;;;;3.20;2.20;;;22.40;56.50;;;;;;4999814;28;20490;-65
2023/09/29 11:58:44;;;;;;;3.05;2.00;;;22.40;56.50;;;;;;5001636;28;20045;-65
2023/09/29 12:01:10;;;;;;;3.42;2.00;;;22.40;56.50;;;;;;5000143;28;20034;-65
2023/09/29 12:03:36;;;;;;;3.20;2.00;;;22.40;56.60;;;;;;4997558;28;20486;-64
2023/09/29 12:06:02;;;;;;;3.58;2.20;;;22.40;56.50;;;;;;5000468;28;20022;-62
2023/09/29 12:08:29;;;;;;;3.10;2.20;;;22.40;56.50;;;;;;4998072;28;20018;-62
2023/09/29 12:10:55;;;;;;;3.05;1.92;;;22.40;56.60;;;;;;4999464;28;20033;-63
2023/09/29 12:13:20;;;;;;;3.35;2.40;;;22.40;56.60;;;;;;4998467;28;20042;-62
2023/09/29 12:15:46;;;;;;;3.53;2.17;;;22.40;56.60;;;;;;4999479;28;20222;-65
2023/09/29 12:18:13;;;;;;;3.35;2.13;;;22.40;56.50;;;;;;4998767;28;20112;-65
2023/09/29 12:20:39;;;;;;;3.83;2.10;;;22.40;56.50;;;;;;4997474;28;20482;-65
2023/09/29 12:23:06;;;;;;;2.95;1.98;;;22.40;56.60;;;;;;4999062;28;20139;-66
2023/09/29 12:25:32;;;;;;;3.58;2.15;;;22.40;56.60;;;;;;4999652;28;20138;-65
2023/09/29 12:27:59;;;;;;;3.00;2.03;;;22.40;56.60;;;;;;4999200;28;20034;-65
2023/09/29 12:30:25;;;;;;;3.63;2.40;;;22.40;56.60;;;;;;5000125;28;20497;-65
2023/09/29 12:32:50;;;;;;;3.33;1.98;;;22.40;56.60;;;;;;4998646;28;20022;-65
2023/09/29 12:35:16;;;;;;;3.00;1.90;;;22.40;56.60;;;;;;4997817;28;20402;-65
2023/09/29 12:37:43;;;;;;;3.10;2.13;;;22.40;56.60;;;;;;4998477;28;20038;-65
2023/09/29 12:40:11;;;;;;;3.08;1.95;;;22.40;56.60;;;;;;4999392;28;20057;-65
2023/09/29 12:42:46;;;;;;;4.25;2.50;;;22.40;56.60;;;;;;4998602;28;20045;-65
2023/09/29 12:45:17;;;;;;;3.90;2.10;;;22.40;56.60;;;;;;5000597;28;20045;-63
2023/09/29 12:47:43;;;;;;;3.05;2.10;;;22.40;56.60;;;;;;4996106;28;20399;-63